sensor_id;sensor_type;location;lat;lon;timestamp;pressure;altitude;pressure_sealevel;temperature;humidity
16481;BME280;44634;54.110;12.138;2023-04-23T00:01:57;100481.44;;;18.16;99.30
16481;BME280;44634;54.110;12.138;2023-04-23T00:04:27;100476.28;;;17.72;100.00
16481;BME280;44634;54.110;12.138;2023-04-23T00:06:56;100475.47;;;18.42;100.00
16481;BME280;44634;54.110;12.138;2023-04-23T00:09:27;100471.31;;;18.11;100.00
16481;BME280;44634;54.110;12.138;2023-04-23T00:11:57;100454.06;;;17.93;100.00
16481;BME280;44634;54.110;12.138;2023-04-23T00:14:25;100454.06;;;17.71;100.00
16481;BME280;44634;54.110;12.138;2023-04-23T00:16:53;100452.03;;;17.73;100.00
16481;BME280;44634;54.110;12.138;2023-04-23T00:19:21;100453.34;;;18.05;100.00
16481;BME280;44634;54.110;12.138;2023-04-23T00:21:50;100439.63;;;17.87;100.00
16481;BME280;44634;54.110;12.138;2023-04-23T00:24:19;100438.78;;;17.65;100.00
16481;BME280;44634;54.110;12.138;2023-04-23T00:26:46;100435.53;;;17.91;100.00
16481;BME280;44634;54.110;12.138;2023-04-23T00:29:14;100433.13;;;17.75;100.00
16481;BME280;44634;54.110;12.138;2023-04-23T00:31:42;100431.50;;;17.38;100.00
16481;BME280;44634;54.110;12.138;2023-04-23T00:34:10;100431.09;;;17.41;100.00
16481;BME280;44634;54.110;12.138;2023-04-23T00:36:37;100425.75;;;17.41;100.00
16481;BME280;44634;54.110;12.138;2023-04-23T00:39:07;100425.38;;;17.44;100.00
16481;BME280;44634;54.110;12.138;2023-04-23T00:41:35;100424.22;;;17.32;100.00
16481;BME280;44634;54.110;12.138;2023-04-23T00:44:03;100424.53;;;17.22;100.00
16481;BME280;44634;54.110;12.138;2023-04-23T00:46:31;100425.97;;;16.88;100.00
16481;BME280;44634;54.110;12.138;2023-04-23T00:48:58;100433.31;;;17.01;100.00
16481;BME280;44634;54.110;12.138;2023-04-23T00:51:27;100424.13;;;16.89;100.00
16481;BME280;44634;54.110;12.138;2023-04-23T00:53:55;100424.31;;;16.87;100.00
16481;BME280;44634;54.110;12.138;2023-04-23T00:56:24;100421.28;;;16.76;100.00
16481;BME280;44634;54.110;12.138;2023-04-23T00:58:53;100426.56;;;17.05;100.00
16481;BME280;44634;54.110;12.138;2023-04-23T01:01:21;100421.75;;;16.79;100.00
16481;BME280;44634;54.110;12.138;2023-04-23T01:03:50;100421.97;;;17.14;100.00
16481;BME280;44634;54.110;12.138;2023-04-23T01:06:20;100421.25;;;16.61;100.00
16481;BME280;44634;54.110;12.138;2023-04-23T01:08:50;100412.88;;;16.64;100.00
16481;BME280;44634;54.110;12.138;2023-04-23T01:11:18;100414.81;;;16.55;100.00
16481;BME280;44634;54.110;12.138;2023-04-23T01:13:47;100410.03;;;16.65;100.00
16481;BME280;44634;54.110;12.138;2023-04-23T01:16:15;100412.44;;;16.75;100.00
16481;BME280;44634;54.110;12.138;2023-04-23T01:18:43;100407.66;;;16.85;100.00
16481;BME280;44634;54.110;12.138;2023-04-23T01:21:11;100408.41;;;16.79;100.00
16481;BME280;44634;54.110;12.138;2023-04-23T01:23:40;100404.34;;;16.69;100.00
16481;BME280;44634;54.110;12.138;2023-04-23T01:26:08;100402.31;;;16.71;100.00
16481;BME280;44634;54.110;12.138;2023-04-23T01:28:37;100401.22;;;16.80;100.00
16481;BME280;44634;54.110;12.138;2023-04-23T01:31:05;100398.78;;;16.41;100.00
16481;BME280;44634;54.110;12.138;2023-04-23T01:33:34;100403.19;;;16.63;100.00
16481;BME280;44634;54.110;12.138;2023-04-23T01:36:02;100411.03;;;16.35;100.00
16481;BME280;44634;54.110;12.138;2023-04-23T01:38:32;100399.63;;;17.36;100.00
16481;BME280;44634;54.110;12.138;2023-04-23T01:41:16;100402.22;;;16.93;100.00
16481;BME280;44634;54.110;12.138;2023-04-23T01:43:44;100399.44;;;17.38;100.00
16481;BME280;44634;54.110;12.138;2023-04-23T01:46:12;100396.81;;;17.23;100.00
16481;BME280;44634;54.110;12.138;2023-04-23T01:48:40;100395.88;;;17.52;100.00
16481;BME280;44634;54.110;12.138;2023-04-23T01:51:08;100393.34;;;17.29;100.00
16481;BME280;44634;54.110;12.138;2023-04-23T01:53:35;100394.84;;;16.66;100.00
16481;BME280;44634;54.110;12.138;2023-04-23T01:56:04;100387.72;;;17.03;100.00
16481;BME280;44634;54.110;12.138;2023-04-23T01:58:34;100394.06;;;17.38;100.00
16481;BME280;44634;54.110;12.138;2023-04-23T02:01:01;100392.69;;;17.06;100.00
16481;BME280;44634;54.110;12.138;2023-04-23T02:03:29;100392.97;;;17.32;100.00
16481;BME280;44634;54.110;12.138;2023-04-23T02:05:59;100381.06;;;17.99;100.00
16481;BME280;44634;54.110;12.138;2023-04-23T02:08:27;100381.84;;;17.93;100.00
16481;BME280;44634;54.110;12.138;2023-04-23T02:10:55;100372.84;;;18.00;99.86
16481;BME280;44634;54.110;12.138;2023-04-23T02:13:23;100376.38;;;18.07;95.74
16481;BME280;44634;54.110;12.138;2023-04-23T02:15:52;100368.38;;;18.42;95.37
16481;BME280;44634;54.110;12.138;2023-04-23T02:18:19;100364.75;;;18.22;95.04
16481;BME280;44634;54.110;12.138;2023-04-23T02:20:47;100364.47;;;18.38;94.44
16481;BME280;44634;54.110;12.138;2023-04-23T02:23:15;100356.31;;;18.53;93.33
16481;BME280;44634;54.110;12.138;2023-04-23T02:25:43;100363.59;;;18.65;93.29
16481;BME280;44634;54.110;12.138;2023-04-23T02:28:11;100370.44;;;18.40;94.27
16481;BME280;44634;54.110;12.138;2023-04-23T02:30:39;100385.81;;;17.54;100.00
16481;BME280;44634;54.110;12.138;2023-04-23T02:33:12;100384.25;;;17.23;100.00
16481;BME280;44634;54.110;12.138;2023-04-23T02:35:40;100391.38;;;16.80;100.00
16481;BME280;44634;54.110;12.138;2023-04-23T02:38:08;100385.81;;;16.97;100.00
16481;BME280;44634;54.110;12.138;2023-04-23T02:40:35;100383.00;;;16.69;100.00
16481;BME280;44634;54.110;12.138;2023-04-23T02:43:03;100377.53;;;16.47;100.00
16481;BME280;44634;54.110;12.138;2023-04-23T02:45:31;100385.19;;;16.80;100.00
16481;BME280;44634;54.110;12.138;2023-04-23T02:47:59;100382.84;;;17.49;100.00
16481;BME280;44634;54.110;12.138;2023-04-23T02:50:28;100386.13;;;17.23;100.00
16481;BME280;44634;54.110;12.138;2023-04-23T02:52:55;100378.13;;;17.94;100.00
16481;BME280;44634;54.110;12.138;2023-04-23T02:55:23;100389.06;;;17.13;100.00
16481;BME280;44634;54.110;12.138;2023-04-23T02:57:51;100390.38;;;17.39;100.00
16481;BME280;44634;54.110;12.138;2023-04-23T03:00:19;100394.13;;;17.44;100.00
16481;BME280;44634;54.110;12.138;2023-04-23T03:02:46;100391.75;;;17.35;100.00
16481;BME280;44634;54.110;12.138;2023-04-23T03:05:14;100395.88;;;17.52;100.00
16481;BME280;44634;54.110;12.138;2023-04-23T03:07:44;100381.75;;;17.79;100.00
16481;BME280;44634;54.110;12.138;2023-04-23T03:10:11;100394.44;;;18.27;100.00
16481;BME280;44634;54.110;12.138;2023-04-23T03:12:39;100395.09;;;17.37;100.00
16481;BME280;44634;54.110;12.138;2023-04-23T03:15:08;100390.84;;;18.13;100.00
16481;BME280;44634;54.110;12.138;2023-04-23T03:17:37;100390.75;;;17.78;100.00
16481;BME280;44634;54.110;12.138;2023-04-23T03:20:07;100393.69;;;17.62;100.00
16481;BME280;44634;54.110;12.138;2023-04-23T03:22:37;100391.59;;;18.35;100.00
16481;BME280;44634;54.110;12.138;2023-04-23T03:25:06;100395.41;;;18.19;100.00
16481;BME280;44634;54.110;12.138;2023-04-23T03:27:35;100386.53;;;18.47;100.00
16481;BME280;44634;54.110;12.138;2023-04-23T03:30:07;100387.69;;;18.65;100.00
16481;BME280;44634;54.110;12.138;2023-04-23T03:32:35;100387.69;;;18.65;100.00
16481;BME280;44634;54.110;12.138;2023-04-23T03:35:03;100386.56;;;18.19;100.00
16481;BME280;44634;54.110;12.138;2023-04-23T03:37:31;100387.59;;;18.18;100.00
16481;BME280;44634;54.110;12.138;2023-04-23T03:39:59;100391.66;;;18.41;100.00
16481;BME280;44634;54.110;12.138;2023-04-23T03:42:30;100384.41;;;18.35;100.00
16481;BME280;44634;54.110;12.138;2023-04-23T03:44:58;100385.06;;;18.79;100.00
16481;BME280;44634;54.110;12.138;2023-04-23T03:47:26;100391.25;;;18.10;100.00
16481;BME280;44634;54.110;12.138;2023-04-23T03:49:53;100384.53;;;18.55;100.00
16481;BME280;44634;54.110;12.138;2023-04-23T03:52:21;100387.97;;;18.42;100.00
16481;BME280;44634;54.110;12.138;2023-04-23T03:54:49;100394.03;;;18.23;100.00
16481;BME280;44634;54.110;12.138;2023-04-23T03:57:17;100387.16;;;18.49;100.00
16481;BME280;44634;54.110;12.138;2023-04-23T03:59:46;100384.41;;;18.35;100.00
16481;BME280;44634;54.110;12.138;2023-04-23T04:02:14;100386.09;;;18.08;100.00
16481;BME280;44634;54.110;12.138;2023-04-23T04:04:42;100384.56;;;17.99;100.00
16481;BME280;44634;54.110;12.138;2023-04-23T04:07:12;100376.13;;;17.74;100.00
16481;BME280;44634;54.110;12.138;2023-04-23T04:09:40;100377.59;;;18.33;100.00
16481;BME280;44634;54.110;12.138;2023-04-23T04:12:07;100371.78;;;17.95;100.00
16481;BME280;44634;54.110;12.138;2023-04-23T04:14:35;100366.25;;;17.75;100.00
16481;BME280;44634;54.110;12.138;2023-04-23T04:17:04;100376.56;;;17.35;100.00
16481;BME280;44634;54.110;12.138;2023-04-23T04:19:33;100376.31;;;17.30;100.00
16481;BME280;44634;54.110;12.138;2023-04-23T04:22:01;100371.69;;;17.39;100.00
16481;BME280;44634;54.110;12.138;2023-04-23T04:24:29;100371.69;;;17.03;100.00
16481;BME280;44634;54.110;12.138;2023-04-23T04:26:57;100373.34;;;17.04;100.00
16481;BME280;44634;54.110;12.138;2023-04-23T04:29:25;100379.59;;;17.32;100.00
16481;BME280;44634;54.110;12.138;2023-04-23T04:31:54;100383.81;;;17.41;100.00
16481;BME280;44634;54.110;12.138;2023-04-23T04:34:23;100370.41;;;17.56;100.00
16481;BME280;44634;54.110;12.138;2023-04-23T04:36:51;100371.59;;;17.11;100.00
16481;BME280;44634;54.110;12.138;2023-04-23T04:39:19;100371.25;;;17.20;100.00
16481;BME280;44634;54.110;12.138;2023-04-23T04:41:47;100375.44;;;17.23;100.00
16481;BME280;44634;54.110;12.138;2023-04-23T04:44:14;100382.88;;;17.28;100.00
16481;BME280;44634;54.110;12.138;2023-04-23T04:46:43;100372.59;;;17.10;100.00
16481;BME280;44634;54.110;12.138;2023-04-23T04:49:11;100371.84;;;17.16;100.00
16481;BME280;44634;54.110;12.138;2023-04-23T04:51:40;100374.53;;;17.37;100.00
16481;BME280;44634;54.110;12.138;2023-04-23T04:54:08;100371.81;;;17.73;100.00
16481;BME280;44634;54.110;12.138;2023-04-23T04:56:36;100384.78;;;18.26;100.00
16481;BME280;44634;54.110;12.138;2023-04-23T04:59:03;100370.50;;;18.19;100.00
16481;BME280;44634;54.110;12.138;2023-04-23T05:01:32;100394.13;;;18.08;100.00
16481;BME280;44634;54.110;12.138;2023-04-23T05:04:00;100376.06;;;18.52;100.00
16481;BME280;44634;54.110;12.138;2023-04-23T05:06:28;100378.50;;;18.12;100.00
16481;BME280;44634;54.110;12.138;2023-04-23T05:08:59;100370.69;;;18.17;100.00
16481;BME280;44634;54.110;12.138;2023-04-23T05:11:26;100383.03;;;18.46;100.00
16481;BME280;44634;54.110;12.138;2023-04-23T05:13:55;100371.03;;;18.07;100.00
16481;BME280;44634;54.110;12.138;2023-04-23T05:16:23;100365.50;;;18.09;100.00
16481;BME280;44634;54.110;12.138;2023-04-23T05:18:51;100352.50;;;17.57;100.00
16481;BME280;44634;54.110;12.138;2023-04-23T05:21:19;100352.78;;;17.40;100.00
16481;BME280;44634;54.110;12.138;2023-04-23T05:23:46;100338.47;;;17.69;100.00
16481;BME280;44634;54.110;12.138;2023-04-23T05:26:16;100328.31;;;17.86;100.00
16481;BME280;44634;54.110;12.138;2023-04-23T05:28:44;100330.34;;;17.63;100.00
16481;BME280;44634;54.110;12.138;2023-04-23T05:31:12;100303.88;;;17.46;100.00
16481;BME280;44634;54.110;12.138;2023-04-23T05:33:40;100300.97;;;17.41;100.00
16481;BME280;44634;54.110;12.138;2023-04-23T05:36:16;100279.75;;;17.61;100.00
16481;BME280;44634;54.110;12.138;2023-04-23T05:38:44;100267.75;;;17.50;100.00
16481;BME280;44634;54.110;12.138;2023-04-23T05:41:12;100256.09;;;17.65;100.00
16481;BME280;44634;54.110;12.138;2023-04-23T05:43:41;100261.78;;;17.76;100.00
16481;BME280;44634;54.110;12.138;2023-04-23T05:46:09;100252.31;;;17.74;100.00
16481;BME280;44634;54.110;12.138;2023-04-23T05:48:37;100239.25;;;17.64;100.00
16481;BME280;44634;54.110;12.138;2023-04-23T05:51:04;100215.50;;;17.76;100.00
16481;BME280;44634;54.110;12.138;2023-04-23T05:53:32;100206.22;;;17.72;100.00
16481;BME280;44634;54.110;12.138;2023-04-23T05:56:00;100157.13;;;17.51;100.00
16481;BME280;44634;54.110;12.138;2023-04-23T05:58:28;100131.22;;;17.52;100.00
16481;BME280;44634;54.110;12.138;2023-04-23T06:00:57;100109.66;;;17.60;100.00
16481;BME280;44634;54.110;12.138;2023-04-23T06:03:25;100090.97;;;17.60;100.00
16481;BME280;44634;54.110;12.138;2023-04-23T06:05:53;100068.75;;;17.60;100.00
16481;BME280;44634;54.110;12.138;2023-04-23T06:08:21;100079.59;;;17.93;100.00
16481;BME280;44634;54.110;12.138;2023-04-23T06:10:50;100043.13;;;17.72;100.00
16481;BME280;44634;54.110;12.138;2023-04-23T06:13:18;99985.56;;;17.28;100.00
16481;BME280;44634;54.110;12.138;2023-04-23T06:15:46;99966.53;;;17.51;100.00
16481;BME280;44634;54.110;12.138;2023-04-23T06:18:15;99947.13;;;17.36;100.00
16481;BME280;44634;54.110;12.138;2023-04-23T06:20:43;99960.34;;;17.44;100.00
16481;BME280;44634;54.110;12.138;2023-04-23T06:23:11;99913.41;;;16.74;100.00
16481;BME280;44634;54.110;12.138;2023-04-23T06:25:39;99884.50;;;16.84;100.00
16481;BME280;44634;54.110;12.138;2023-04-23T06:28:07;99864.66;;;16.24;100.00
16481;BME280;44634;54.110;12.138;2023-04-23T06:30:35;99852.69;;;16.20;100.00
16481;BME280;44634;54.110;12.138;2023-04-23T06:33:03;99834.25;;;16.59;100.00
16481;BME280;44634;54.110;12.138;2023-04-23T06:35:32;99849.56;;;15.82;100.00
16481;BME280;44634;54.110;12.138;2023-04-23T06:37:59;99862.63;;;15.76;100.00
16481;BME280;44634;54.110;12.138;2023-04-23T06:40:27;99878.53;;;15.63;100.00
16481;BME280;44634;54.110;12.138;2023-04-23T06:42:55;99917.34;;;14.85;100.00
16481;BME280;44634;54.110;12.138;2023-04-23T06:45:23;99989.63;;;14.45;100.00
16481;BME280;44634;54.110;12.138;2023-04-23T06:47:50;100066.66;;;13.84;100.00
16481;BME280;44634;54.110;12.138;2023-04-23T06:50:18;100144.78;;;13.20;100.00
16481;BME280;44634;54.110;12.138;2023-04-23T06:52:47;100189.41;;;13.80;100.00
16481;BME280;44634;54.110;12.138;2023-04-23T06:55:15;100215.41;;;13.45;100.00
16481;BME280;44634;54.110;12.138;2023-04-23T06:57:43;100244.81;;;13.35;100.00
16481;BME280;44634;54.110;12.138;2023-04-23T07:00:12;100257.41;;;13.25;100.00
16481;BME280;44634;54.110;12.138;2023-04-23T07:02:39;100258.22;;;13.18;100.00
16481;BME280;44634;54.110;12.138;2023-04-23T07:05:08;100279.16;;;12.54;100.00
16481;BME280;44634;54.110;12.138;2023-04-23T07:07:37;100293.91;;;13.23;100.00
16481;BME280;44634;54.110;12.138;2023-04-23T07:10:08;100270.34;;;13.36;100.00
16481;BME280;44634;54.110;12.138;2023-04-23T07:12:37;100291.34;;;12.81;100.00
16481;BME280;44634;54.110;12.138;2023-04-23T07:15:07;100306.00;;;13.18;100.00
16481;BME280;44634;54.110;12.138;2023-04-23T07:17:35;100311.53;;;12.66;100.00
16481;BME280;44634;54.110;12.138;2023-04-23T07:20:03;100335.66;;;12.89;100.00
16481;BME280;44634;54.110;12.138;2023-04-23T07:22:32;100351.66;;;12.71;100.00
16481;BME280;44634;54.110;12.138;2023-04-23T07:25:00;100355.34;;;12.44;100.00
16481;BME280;44634;54.110;12.138;2023-04-23T07:27:31;100355.22;;;12.88;100.00
16481;BME280;44634;54.110;12.138;2023-04-23T07:29:58;100351.28;;;12.58;100.00
16481;BME280;44634;54.110;12.138;2023-04-23T07:32:27;100376.47;;;12.54;100.00
16481;BME280;44634;54.110;12.138;2023-04-23T07:34:55;100390.13;;;12.33;100.00
16481;BME280;44634;54.110;12.138;2023-04-23T07:37:22;100398.06;;;12.67;100.00
16481;BME280;44634;54.110;12.138;2023-04-23T07:39:50;100396.81;;;12.87;100.00
16481;BME280;44634;54.110;12.138;2023-04-23T07:42:19;100367.50;;;12.89;100.00
16481;BME280;44634;54.110;12.138;2023-04-23T07:44:48;100372.81;;;12.97;100.00
16481;BME280;44634;54.110;12.138;2023-04-23T07:47:16;100368.38;;;12.63;100.00
16481;BME280;44634;54.110;12.138;2023-04-23T07:49:44;100382.22;;;12.83;100.00
16481;BME280;44634;54.110;12.138;2023-04-23T07:52:11;100369.13;;;12.81;100.00
16481;BME280;44634;54.110;12.138;2023-04-23T07:54:40;100364.13;;;12.87;100.00
16481;BME280;44634;54.110;12.138;2023-04-23T07:57:08;100340.41;;;12.77;100.00
16481;BME280;44634;54.110;12.138;2023-04-23T07:59:37;100342.47;;;12.49;100.00
16481;BME280;44634;54.110;12.138;2023-04-23T08:02:07;100364.09;;;13.21;100.00
16481;BME280;44634;54.110;12.138;2023-04-23T08:04:35;100354.31;;;12.71;100.00
16481;BME280;44634;54.110;12.138;2023-04-23T08:07:03;100349.06;;;12.87;100.00
16481;BME280;44634;54.110;12.138;2023-04-23T08:09:31;100356.44;;;12.59;100.00
16481;BME280;44634;54.110;12.138;2023-04-23T08:11:59;100362.47;;;12.86;100.00
16481;BME280;44634;54.110;12.138;2023-04-23T08:14:27;100333.34;;;13.02;100.00
16481;BME280;44634;54.110;12.138;2023-04-23T08:16:55;100330.94;;;13.41;100.00
16481;BME280;44634;54.110;12.138;2023-04-23T08:19:24;100308.03;;;13.48;100.00
16481;BME280;44634;54.110;12.138;2023-04-23T08:21:57;100317.09;;;13.13;100.00
16481;BME280;44634;54.110;12.138;2023-04-23T08:24:24;100307.94;;;12.83;100.00
16481;BME280;44634;54.110;12.138;2023-04-23T08:26:52;100316.19;;;12.72;100.00
16481;BME280;44634;54.110;12.138;2023-04-23T08:29:21;100300.53;;;13.03;100.00
16481;BME280;44634;54.110;12.138;2023-04-23T08:31:48;100284.06;;;13.16;100.00
16481;BME280;44634;54.110;12.138;2023-04-23T08:34:16;100265.50;;;13.16;100.00
16481;BME280;44634;54.110;12.138;2023-04-23T08:36:45;100259.41;;;13.39;100.00
16481;BME280;44634;54.110;12.138;2023-04-23T08:39:14;100240.78;;;13.64;100.00
16481;BME280;44634;54.110;12.138;2023-04-23T08:41:43;100230.88;;;13.25;100.00
16481;BME280;44634;54.110;12.138;2023-04-23T08:44:17;100260.22;;;13.24;100.00
16481;BME280;44634;54.110;12.138;2023-04-23T08:46:45;100247.13;;;13.38;100.00
16481;BME280;44634;54.110;12.138;2023-04-23T08:49:15;100227.34;;;13.49;100.00
16481;BME280;44634;54.110;12.138;2023-04-23T08:51:48;100213.22;;;13.65;100.00
16481;BME280;44634;54.110;12.138;2023-04-23T08:54:21;100204.66;;;13.22;100.00
16481;BME280;44634;54.110;12.138;2023-04-23T08:56:54;100200.66;;;13.10;100.00
16481;BME280;44634;54.110;12.138;2023-04-23T08:59:23;100184.50;;;13.60;100.00
16481;BME280;44634;54.110;12.138;2023-04-23T09:01:52;100186.41;;;13.19;100.00
16481;BME280;44634;54.110;12.138;2023-04-23T09:04:20;100166.94;;;13.51;100.00
16481;BME280;44634;54.110;12.138;2023-04-23T09:06:51;100141.28;;;13.75;100.00
16481;BME280;44634;54.110;12.138;2023-04-23T09:09:20;100116.47;;;13.90;100.00
16481;BME280;44634;54.110;12.138;2023-04-23T09:11:49;100104.00;;;14.45;100.00
16481;BME280;44634;54.110;12.138;2023-04-23T09:14:21;100087.25;;;14.59;100.00
16481;BME280;44634;54.110;12.138;2023-04-23T09:16:51;100059.81;;;14.81;100.00
16481;BME280;44634;54.110;12.138;2023-04-23T09:19:19;100046.50;;;14.81;100.00
16481;BME280;44634;54.110;12.138;2023-04-23T09:21:47;100051.19;;;14.79;100.00
16481;BME280;44634;54.110;12.138;2023-04-23T09:24:16;100057.50;;;13.87;100.00
16481;BME280;44634;54.110;12.138;2023-04-23T09:26:44;100041.69;;;14.62;100.00
16481;BME280;44634;54.110;12.138;2023-04-23T09:29:13;100040.09;;;15.35;100.00
16481;BME280;44634;54.110;12.138;2023-04-23T09:31:44;100045.22;;;14.77;100.00
16481;BME280;44634;54.110;12.138;2023-04-23T09:34:14;100046.13;;;14.84;100.00
16481;BME280;44634;54.110;12.138;2023-04-23T09:36:43;100048.50;;;14.65;100.00
16481;BME280;44634;54.110;12.138;2023-04-23T09:39:12;100052.38;;;14.92;100.00
16481;BME280;44634;54.110;12.138;2023-04-23T09:41:41;100071.06;;;14.69;100.00
16481;BME280;44634;54.110;12.138;2023-04-23T09:44:11;100071.44;;;14.20;100.00
16481;BME280;44634;54.110;12.138;2023-04-23T09:46:41;100068.22;;;14.70;100.00
16481;BME280;44634;54.110;12.138;2023-04-23T09:49:10;100074.13;;;14.12;100.00
16481;BME280;44634;54.110;12.138;2023-04-23T09:51:39;100062.28;;;14.45;100.00
16481;BME280;44634;54.110;12.138;2023-04-23T09:54:11;100053.56;;;15.04;100.00
16481;BME280;44634;54.110;12.138;2023-04-23T09:56:39;100041.53;;;14.78;100.00
16481;BME280;44634;54.110;12.138;2023-04-23T09:59:26;100091.56;;;14.83;100.00
16481;BME280;44634;54.110;12.138;2023-04-23T10:02:14;100263.19;;;15.10;100.00
16481;BME280;44634;54.110;12.138;2023-04-23T10:04:42;100250.75;;;15.02;100.00
16481;BME280;44634;54.110;12.138;2023-04-23T10:07:10;100202.44;;;14.68;100.00
16481;BME280;44634;54.110;12.138;2023-04-23T10:09:42;100096.84;;;15.06;100.00
16481;BME280;44634;54.110;12.138;2023-04-23T10:12:10;100107.34;;;14.39;100.00
16481;BME280;44634;54.110;12.138;2023-04-23T10:15:01;100105.72;;;15.13;100.00
16481;BME280;44634;54.110;12.138;2023-04-23T10:17:30;100144.41;;;14.48;100.00
16481;BME280;44634;54.110;12.138;2023-04-23T10:19:59;100125.91;;;14.93;100.00
16481;BME280;44634;54.110;12.138;2023-04-23T10:22:28;100150.09;;;15.06;100.00
16481;BME280;44634;54.110;12.138;2023-04-23T10:24:58;100184.47;;;14.93;100.00
16481;BME280;44634;54.110;12.138;2023-04-23T10:27:28;100211.44;;;14.89;100.00
16481;BME280;44634;54.110;12.138;2023-04-23T10:30:15;100214.31;;;15.26;100.00
16481;BME280;44634;54.110;12.138;2023-04-23T10:32:43;100192.03;;;15.18;100.00
16481;BME280;44634;54.110;12.138;2023-04-23T10:35:14;100210.38;;;15.36;100.00
16481;BME280;44634;54.110;12.138;2023-04-23T10:37:43;100123.97;;;15.01;100.00
16481;BME280;44634;54.110;12.138;2023-04-23T10:40:13;100164.28;;;14.98;100.00
16481;BME280;44634;54.110;12.138;2023-04-23T10:42:42;100227.13;;;15.07;100.00
16481;BME280;44634;54.110;12.138;2023-04-23T10:45:14;100227.66;;;14.18;100.00
16481;BME280;44634;54.110;12.138;2023-04-23T10:47:46;100239.53;;;14.69;100.00
16481;BME280;44634;54.110;12.138;2023-04-23T10:50:18;100287.63;;;15.13;100.00
16481;BME280;44634;54.110;12.138;2023-04-23T10:52:48;100357.34;;;15.40;100.00
16481;BME280;44634;54.110;12.138;2023-04-23T10:55:19;100380.91;;;15.28;100.00
16481;BME280;44634;54.110;12.138;2023-04-23T10:57:55;100406.56;;;15.98;100.00
16481;BME280;44634;54.110;12.138;2023-04-23T11:00:28;100425.38;;;16.63;100.00
16481;BME280;44634;54.110;12.138;2023-04-23T11:02:58;100435.97;;;16.42;100.00
16481;BME280;44634;54.110;12.138;2023-04-23T11:05:28;100428.56;;;16.67;100.00
16481;BME280;44634;54.110;12.138;2023-04-23T11:08:04;100507.81;;;17.98;100.00
16481;BME280;44634;54.110;12.138;2023-04-23T11:10:50;100520.59;;;17.30;100.00
16481;BME280;44634;54.110;12.138;2023-04-23T11:13:25;100553.91;;;17.64;100.00
16481;BME280;44634;54.110;12.138;2023-04-23T11:16:15;100541.97;;;17.45;100.00
16481;BME280;44634;54.110;12.138;2023-04-23T11:19:01;100550.75;;;17.90;100.00
16481;BME280;44634;54.110;12.138;2023-04-23T11:21:56;100576.63;;;19.30;100.00
16481;BME280;44634;54.110;12.138;2023-04-23T11:24:26;100561.44;;;18.32;100.00
16481;BME280;44634;54.110;12.138;2023-04-23T11:26:55;100579.97;;;19.05;100.00
16481;BME280;44634;54.110;12.138;2023-04-23T11:29:24;100574.41;;;19.06;100.00
16481;BME280;44634;54.110;12.138;2023-04-23T11:31:53;100594.91;;;18.43;100.00
16481;BME280;44634;54.110;12.138;2023-04-23T11:34:25;100592.16;;;18.58;100.00
16481;BME280;44634;54.110;12.138;2023-04-23T11:36:57;100590.47;;;18.99;100.00
16481;BME280;44634;54.110;12.138;2023-04-23T11:39:25;100590.25;;;18.30;100.00
16481;BME280;44634;54.110;12.138;2023-04-23T11:41:54;100601.28;;;18.85;100.00
16481;BME280;44634;54.110;12.138;2023-04-23T11:44:22;100605.09;;;17.02;100.00
16481;BME280;44634;54.110;12.138;2023-04-23T11:46:50;100588.03;;;18.55;100.00
16481;BME280;44634;54.110;12.138;2023-04-23T11:49:18;100587.25;;;18.61;100.00
16481;BME280;44634;54.110;12.138;2023-04-23T11:51:47;100592.00;;;19.15;100.00
16481;BME280;44634;54.110;12.138;2023-04-23T11:54:15;100586.00;;;20.02;100.00
16481;BME280;44634;54.110;12.138;2023-04-23T11:56:43;100591.41;;;20.15;100.00
16481;BME280;44634;54.110;12.138;2023-04-23T11:59:11;100581.53;;;20.29;100.00
16481;BME280;44634;54.110;12.138;2023-04-23T12:01:43;100583.38;;;20.29;100.00
16481;BME280;44634;54.110;12.138;2023-04-23T12:04:13;100587.56;;;20.84;95.05
16481;BME280;44634;54.110;12.138;2023-04-23T12:06:43;100585.59;;;21.44;91.97
16481;BME280;44634;54.110;12.138;2023-04-23T12:09:13;100577.59;;;21.76;91.72
16481;BME280;44634;54.110;12.138;2023-04-23T12:11:42;100591.69;;;20.60;88.78
16481;BME280;44634;54.110;12.138;2023-04-23T12:14:12;100593.91;;;21.16;89.39
16481;BME280;44634;54.110;12.138;2023-04-23T12:16:42;100597.91;;;20.74;94.40
16481;BME280;44634;54.110;12.138;2023-04-23T12:19:12;100604.31;;;20.86;99.27
16481;BME280;44634;54.110;12.138;2023-04-23T12:21:48;100588.38;;;23.20;74.27
16481;BME280;44634;54.110;12.138;2023-04-23T12:24:17;100600.84;;;22.40;71.99
16481;BME280;44634;54.110;12.138;2023-04-23T12:26:48;100612.03;;;22.43;72.82
16481;BME280;44634;54.110;12.138;2023-04-23T12:29:17;100606.19;;;23.21;67.50
16481;BME280;44634;54.110;12.138;2023-04-23T12:31:45;100611.44;;;21.96;77.57
16481;BME280;44634;54.110;12.138;2023-04-23T12:34:13;100616.56;;;22.18;85.83
16481;BME280;44634;54.110;12.138;2023-04-23T12:36:45;100604.03;;;23.30;70.09
16481;BME280;44634;54.110;12.138;2023-04-23T12:39:25;100607.66;;;22.74;65.24
16481;BME280;44634;54.110;12.138;2023-04-23T12:41:56;100597.09;;;22.97;73.36